createdAt,value
2023-03-17T00:00:26.135Z,59.09
2023-03-17T00:02:52.622Z,59.12
2023-03-17T00:05:20.878Z,59.33
2023-03-17T00:07:47.454Z,59.68
2023-03-17T00:10:18.825Z,59.71
2023-03-17T00:12:46.281Z,60.09
2023-03-17T00:15:14.834Z,60.16
2023-03-17T00:17:42.366Z,60.13
2023-03-17T00:20:14.742Z,60.09
2023-03-17T00:22:41.249Z,60.40
2023-03-17T00:25:20.773Z,60.48
2023-03-17T00:27:47.420Z,60.63
2023-03-17T00:30:14.142Z,60.89
2023-03-17T00:32:41.138Z,61.14
2023-03-17T00:35:27.832Z,60.77
2023-03-17T00:37:57.057Z,61.33
2023-03-17T00:40:26.321Z,61.31
2023-03-17T00:42:53.399Z,61.31
2023-03-17T00:45:22.027Z,61.37
2023-03-17T00:47:50.272Z,61.48
2023-03-17T00:50:24.294Z,61.47
2023-03-17T00:52:53.212Z,62.05
2023-03-17T00:55:21.402Z,62.36
2023-03-17T00:57:49.057Z,61.69
2023-03-17T01:00:27.374Z,61.96
2023-03-17T01:02:56.716Z,61.63
2023-03-17T01:05:25.678Z,61.17
2023-03-17T01:07:57.836Z,61.68
2023-03-17T01:10:26.793Z,61.37
2023-03-17T01:12:55.596Z,61.36
2023-03-17T01:15:23.096Z,61.80
2023-03-17T01:17:50.597Z,61.96
2023-03-17T01:20:22.652Z,62.26
2023-03-17T01:22:50.526Z,61.93
2023-03-17T01:25:18.455Z,61.83
2023-03-17T01:27:46.422Z,61.54
2023-03-17T01:30:32.879Z,61.56
2023-03-17T01:33:00.145Z,61.83
2023-03-17T01:35:29.384Z,62.65
2023-03-17T01:37:57.168Z,63.00
2023-03-17T01:40:30.527Z,62.33
2023-03-17T01:43:06.073Z,62.36
2023-03-17T01:46:11.720Z,62.51
2023-03-17T01:48:42.720Z,62.43
2023-03-17T01:51:13.730Z,62.60
2023-03-17T01:53:40.379Z,62.49
2023-03-17T01:56:08.084Z,62.41
2023-03-17T01:58:34.545Z,62.58
2023-03-17T02:01:01.637Z,62.56
2023-03-17T02:03:29.782Z,63.03
2023-03-17T02:05:57.871Z,62.80
2023-03-17T02:08:24.585Z,62.97
2023-03-17T02:10:52.380Z,62.77
2023-03-17T02:13:19.101Z,62.69
2023-03-17T02:15:48.562Z,62.86
2023-03-17T02:18:17.654Z,63.15
2023-03-17T02:20:46.921Z,63.09
2023-03-17T02:23:19.116Z,62.98
2023-03-17T02:25:47.434Z,63.07
2023-03-17T02:28:16.245Z,63.46
2023-03-17T02:30:43.675Z,63.92
2023-03-17T02:33:11.965Z,63.93
2023-03-17T02:35:39.609Z,63.96
2023-03-17T02:38:06.268Z,63.77
2023-03-17T02:40:33.179Z,63.53
2023-03-17T02:42:59.832Z,63.54
2023-03-17T02:45:27.216Z,63.77
2023-03-17T02:47:54.967Z,64.04
2023-03-17T02:50:24.934Z,64.02
2023-03-17T02:52:54.754Z,64.11
2023-03-17T02:55:21.136Z,64.20
2023-03-17T02:57:47.552Z,63.78
2023-03-17T03:00:14.400Z,64.00
2023-03-17T03:02:41.515Z,63.71
2023-03-17T03:05:08.861Z,63.96
2023-03-17T03:07:35.303Z,64.17
2023-03-17T03:10:02.365Z,64.02
2023-03-17T03:12:28.888Z,63.64
2023-03-17T03:14:55.575Z,63.81
2023-03-17T03:17:22.273Z,63.58
2023-03-17T03:19:49.700Z,63.61
2023-03-17T03:22:16.220Z,63.78
2023-03-17T03:24:42.678Z,63.90
2023-03-17T03:27:09.152Z,63.88
2023-03-17T03:29:35.567Z,63.99
2023-03-17T03:32:04.663Z,63.56
2023-03-17T03:34:31.849Z,63.64
2023-03-17T03:36:58.519Z,63.19
2023-03-17T03:39:25.031Z,63.53
2023-03-17T03:41:51.437Z,63.68
2023-03-17T03:44:17.869Z,64.32
2023-03-17T03:46:44.417Z,63.88
2023-03-17T03:49:10.822Z,64.30
2023-03-17T03:51:37.363Z,64.24
2023-03-17T03:54:03.757Z,64.38
2023-03-17T03:56:30.214Z,64.23
2023-03-17T03:58:57.201Z,64.62
2023-03-17T04:01:24.619Z,64.64
2023-03-17T04:03:51.265Z,64.54
2023-03-17T04:06:17.836Z,65.08
2023-03-17T04:08:44.292Z,65.26
2023-03-17T04:11:10.776Z,65.26
2023-03-17T04:13:37.790Z,65.81
2023-03-17T04:16:04.705Z,65.84
2023-03-17T04:18:31.692Z,65.89
2023-03-17T04:20:58.182Z,65.69
2023-03-17T04:23:24.581Z,65.06
2023-03-17T04:25:53.103Z,65.86
2023-03-17T04:28:20.479Z,65.67
2023-03-17T04:30:47.239Z,65.59
2023-03-17T04:33:13.824Z,65.66
2023-03-17T04:35:40.718Z,65.66
2023-03-17T04:38:07.182Z,67.23
2023-03-17T04:40:33.719Z,66.90
2023-03-17T04:43:01.891Z,68.42
2023-03-17T04:45:29.929Z,67.46
2023-03-17T04:47:56.610Z,68.33
2023-03-17T04:50:23.354Z,67.89
2023-03-17T04:52:49.823Z,67.80
2023-03-17T04:55:16.606Z,68.21
2023-03-17T04:57:44.128Z,67.99
2023-03-17T05:00:12.606Z,67.46
2023-03-17T05:02:39.212Z,67.35
2023-03-17T05:05:05.879Z,67.58
2023-03-17T05:07:34.141Z,67.34
2023-03-17T05:10:00.757Z,67.25
2023-03-17T05:12:27.404Z,67.72
2023-03-17T05:14:53.759Z,67.85
2023-03-17T05:17:20.699Z,68.03
2023-03-17T05:19:47.176Z,67.61
2023-03-17T05:22:13.576Z,67.08
2023-03-17T05:24:39.961Z,67.63
2023-03-17T05:27:06.345Z,67.25
2023-03-17T05:29:32.717Z,66.97
2023-03-17T05:31:59.413Z,66.54
2023-03-17T05:34:25.858Z,67.38
2023-03-17T05:36:52.343Z,67.63
2023-03-17T05:39:18.805Z,67.38
2023-03-17T05:41:45.442Z,68.13
2023-03-17T05:44:12.064Z,66.98
2023-03-17T05:46:38.589Z,67.83
2023-03-17T05:49:05.259Z,68.31
2023-03-17T05:51:31.726Z,68.28
2023-03-17T05:53:58.402Z,68.20
2023-03-17T05:56:26.796Z,67.79
2023-03-17T05:58:53.163Z,67.24
2023-03-17T06:01:19.668Z,68.03
2023-03-17T06:03:46.122Z,68.71
2023-03-17T06:06:12.746Z,68.62
2023-03-17T06:08:39.188Z,68.20
2023-03-17T06:11:05.776Z,67.71
2023-03-17T06:13:32.249Z,68.10
2023-03-17T06:15:58.961Z,66.52
2023-03-17T06:18:25.402Z,66.33
2023-03-17T06:20:51.876Z,66.42
2023-03-17T06:23:18.902Z,65.80
2023-03-17T06:25:45.311Z,64.91
2023-03-17T06:28:11.818Z,65.07
2023-03-17T06:30:40.619Z,64.66
2023-03-17T06:33:08.201Z,64.79
2023-03-17T06:35:35.079Z,64.52
2023-03-17T06:38:02.261Z,64.56
2023-03-17T06:40:29.189Z,63.75
2023-03-17T06:42:55.663Z,62.81
2023-03-17T06:45:22.097Z,62.43
2023-03-17T06:47:48.546Z,62.25
2023-03-17T06:50:15.375Z,62.39
2023-03-17T06:52:41.933Z,61.86
2023-03-17T06:55:08.765Z,60.50
2023-03-17T06:57:35.798Z,59.59
2023-03-17T07:00:02.378Z,59.36
2023-03-17T07:02:28.953Z,57.26
2023-03-17T07:04:57.713Z,57.48
2023-03-17T07:07:24.827Z,56.67
2023-03-17T07:09:52.754Z,55.01
2023-03-17T07:12:20.100Z,55.01
2023-03-17T07:14:46.615Z,55.01
2023-03-17T07:17:14.594Z,54.46
2023-03-17T07:19:42.313Z,54.29
2023-03-17T07:22:11.872Z,53.14
2023-03-17T07:24:38.570Z,52.16
2023-03-17T07:27:05.056Z,51.41
2023-03-17T07:29:33.745Z,51.95
2023-03-17T07:32:01.221Z,52.36
2023-03-17T07:34:28.209Z,51.30
2023-03-17T07:36:54.821Z,51.00
2023-03-17T07:39:21.507Z,50.81
2023-03-17T07:41:52.923Z,50.85
2023-03-17T07:44:19.823Z,50.15
2023-03-17T07:46:46.602Z,49.96
2023-03-17T07:49:13.222Z,49.85
2023-03-17T07:51:43.077Z,48.97
2023-03-17T07:54:10.664Z,48.38
2023-03-17T07:56:37.122Z,48.21
2023-03-17T07:59:04.570Z,48.30
2023-03-17T08:01:31.452Z,47.89
2023-03-17T08:03:58.019Z,47.14
2023-03-17T08:06:28.100Z,46.47
2023-03-17T08:08:54.881Z,46.57
2023-03-17T08:11:21.957Z,45.26
2023-03-17T08:13:48.428Z,44.73
2023-03-17T08:16:16.794Z,45.09
2023-03-17T08:18:43.205Z,44.51
2023-03-17T08:21:09.816Z,44.83
2023-03-17T08:23:36.512Z,44.67
2023-03-17T08:26:04.539Z,43.86
2023-03-17T08:28:31.790Z,42.59
2023-03-17T08:31:17.219Z,41.85
2023-03-17T08:33:50.138Z,41.74
2023-03-17T08:36:18.719Z,41.71
2023-03-17T08:38:46.612Z,40.45
2023-03-17T08:41:17.040Z,39.94
2023-03-17T08:43:46.366Z,41.30
2023-03-17T08:46:19.221Z,40.92
2023-03-17T08:48:48.164Z,40.18
2023-03-17T08:51:18.557Z,39.11
2023-03-17T08:53:46.358Z,38.94
2023-03-17T08:56:14.110Z,38.38
2023-03-17T08:58:40.459Z,37.28
2023-03-17T09:01:07.106Z,38.39
2023-03-17T09:03:33.783Z,37.64
2023-03-17T09:06:00.467Z,38.57
2023-03-17T09:08:27.916Z,37.70
2023-03-17T09:10:54.453Z,36.70
2023-03-17T09:13:22.278Z,35.44
2023-03-17T09:15:51.305Z,33.97
2023-03-17T09:18:21.391Z,32.63
2023-03-17T09:20:48.574Z,31.92
2023-03-17T09:23:16.011Z,31.22
2023-03-17T09:25:42.864Z,30.38
2023-03-17T09:28:12.381Z,29.17
2023-03-17T09:30:42.876Z,29.27
2023-03-17T09:33:13.924Z,27.18
2023-03-17T09:35:41.217Z,26.97
2023-03-17T09:38:08.076Z,26.51
2023-03-17T09:40:57.505Z,24.46
2023-03-17T09:43:44.071Z,26.80
2023-03-17T09:46:35.347Z,28.65
2023-03-17T09:49:07.958Z,28.73
2023-03-17T09:51:36.117Z,31.64
2023-03-17T09:54:11.548Z,30.66
2023-03-17T09:56:41.983Z,28.13
2023-03-17T09:59:30.318Z,26.25
2023-03-17T10:01:57.126Z,25.01
2023-03-17T10:04:24.157Z,22.30
2023-03-17T10:06:52.377Z,22.42
2023-03-17T10:09:40.272Z,22.28
2023-03-17T10:12:19.110Z,22.51
2023-03-17T10:15:02.681Z,21.62
2023-03-17T10:17:37.490Z,23.36
2023-03-17T10:20:08.840Z,23.05
2023-03-17T10:22:54.792Z,23.69
2023-03-17T10:25:22.491Z,23.12
2023-03-17T10:27:59.904Z,20.92
2023-03-17T10:30:26.626Z,21.91
2023-03-17T10:32:58.860Z,21.70
2023-03-17T10:35:25.882Z,22.81
2023-03-17T10:38:04.428Z,22.99
2023-03-17T10:40:38.416Z,23.39
2023-03-17T10:43:08.653Z,22.98
2023-03-17T10:45:44.006Z,23.37
2023-03-17T10:48:17.395Z,23.46
2023-03-17T10:50:48.618Z,24.28
2023-03-17T10:53:30.220Z,23.40
2023-03-17T10:55:59.643Z,24.23
2023-03-17T10:58:29.205Z,24.38
2023-03-17T11:01:05.702Z,24.05
2023-03-17T11:03:38.723Z,24.39
2023-03-17T11:06:13.460Z,23.39
2023-03-17T11:08:45.574Z,23.89
2023-03-17T11:11:30.479Z,24.58
2023-03-17T11:14:19.004Z,24.75
2023-03-17T11:16:55.048Z,23.92
2023-03-17T11:19:50.334Z,24.84
2023-03-17T11:22:24.863Z,24.85
2023-03-17T11:25:15.296Z,24.27
2023-03-17T11:27:47.986Z,25.22
2023-03-17T11:30:42.319Z,25.14
2023-03-17T11:33:09.113Z,24.14
2023-03-17T11:35:38.428Z,24.58
2023-03-17T11:38:11.001Z,23.86
2023-03-17T11:41:02.184Z,25.46
2023-03-17T11:43:47.966Z,25.09
2023-03-17T11:46:33.116Z,25.10
2023-03-17T11:49:14.722Z,25.16
2023-03-17T11:52:04.955Z,26.06
2023-03-17T11:54:54.589Z,24.38
2023-03-17T11:57:39.657Z,24.64
2023-03-17T12:00:31.730Z,24.83
2023-03-17T12:03:25.549Z,24.87
2023-03-17T12:05:58.201Z,25.16
2023-03-17T12:08:37.709Z,24.80
2023-03-17T12:11:10.621Z,23.21
2023-03-17T12:13:43.154Z,23.28
2023-03-17T12:16:22.949Z,22.99
2023-03-17T12:19:01.886Z,21.47
2023-03-17T12:21:45.617Z,21.33
2023-03-17T12:24:20.051Z,20.77
2023-03-17T12:27:00.548Z,21.68
2023-03-17T12:29:43.739Z,23.07
2023-03-17T12:32:19.681Z,20.96
2023-03-17T12:35:02.422Z,21.27
2023-03-17T12:37:30.179Z,21.37
2023-03-17T12:40:02.375Z,21.03
2023-03-17T12:42:38.121Z,21.16
2023-03-17T12:45:48.380Z,20.35
2023-03-17T12:48:38.657Z,21.02
2023-03-17T12:51:23.749Z,21.32
2023-03-17T12:53:51.472Z,20.99
2023-03-17T12:56:26.362Z,21.14
2023-03-17T12:59:06.109Z,22.44
2023-03-17T13:01:38.916Z,22.81
2023-03-17T13:04:27.351Z,20.87
2023-03-17T13:07:14.467Z,20.71
2023-03-17T13:10:11.680Z,19.93
2023-03-17T13:12:41.922Z,20.15
2023-03-17T13:15:28.210Z,20.66
2023-03-17T13:18:16.228Z,20.68
2023-03-17T13:20:57.557Z,19.57
2023-03-17T13:23:35.564Z,20.26
2023-03-17T13:26:02.902Z,21.16
2023-03-17T13:28:35.556Z,21.11
2023-03-17T13:31:20.517Z,20.59
2023-03-17T13:33:54.471Z,19.18
2023-03-17T13:36:47.751Z,19.56
2023-03-17T13:39:59.553Z,19.89
2023-03-17T13:42:37.933Z,17.93
2023-03-17T13:45:07.407Z,18.26
2023-03-17T13:47:42.192Z,19.17
2023-03-17T13:50:16.997Z,18.24
2023-03-17T13:52:49.190Z,18.76
2023-03-17T13:55:18.617Z,17.55
2023-03-17T13:58:14.487Z,19.47
2023-03-17T14:00:51.541Z,18.28
2023-03-17T14:03:27.395Z,18.44
2023-03-17T14:05:55.325Z,18.79
2023-03-17T14:08:35.627Z,18.69
2023-03-17T14:11:08.816Z,17.98
2023-03-17T14:13:50.497Z,18.93
2023-03-17T14:16:24.465Z,18.71
2023-03-17T14:19:00.312Z,18.79
2023-03-17T14:21:32.602Z,18.99
2023-03-17T14:24:01.895Z,19.10
2023-03-17T14:26:31.295Z,20.57
2023-03-17T14:29:03.591Z,20.59
2023-03-17T14:31:30.682Z,21.67
2023-03-17T14:33:59.175Z,22.47
2023-03-17T14:36:27.972Z,23.21
2023-03-17T14:38:56.850Z,23.66
2023-03-17T14:41:26.200Z,23.28
2023-03-17T14:43:57.159Z,23.84
2023-03-17T14:46:34.433Z,23.10
2023-03-17T14:49:04.215Z,23.87
2023-03-17T14:51:39.536Z,24.14
2023-03-17T14:54:19.409Z,24.15
2023-03-17T14:56:50.924Z,24.01
2023-03-17T14:59:38.358Z,23.94
2023-03-17T15:02:21.458Z,24.66
2023-03-17T15:05:09.565Z,25.31
2023-03-17T15:07:39.843Z,25.26
2023-03-17T15:10:15.794Z,24.92
2023-03-17T15:12:42.942Z,23.83
2023-03-17T15:15:21.481Z,24.09
2023-03-17T15:17:51.821Z,24.35
2023-03-17T15:20:19.964Z,24.11
2023-03-17T15:22:56.075Z,24.27
2023-03-17T15:25:29.069Z,24.44
2023-03-17T15:27:56.123Z,25.03
2023-03-17T15:30:22.853Z,24.67
2023-03-17T15:32:59.440Z,25.57
2023-03-17T15:35:27.273Z,26.07
2023-03-17T15:37:54.748Z,26.50
2023-03-17T15:40:22.182Z,26.55
2023-03-17T15:42:48.639Z,26.10
2023-03-17T15:45:16.306Z,25.97
2023-03-17T15:47:45.334Z,25.81
2023-03-17T15:50:22.171Z,26.58
2023-03-17T15:52:48.555Z,27.27
2023-03-17T15:55:29.413Z,28.00
2023-03-17T15:57:57.151Z,26.86
2023-03-17T16:00:26.716Z,26.20
2023-03-17T16:02:55.136Z,27.38
2023-03-17T16:05:27.443Z,28.08
2023-03-17T16:07:54.736Z,28.36
2023-03-17T16:10:22.422Z,28.50
2023-03-17T16:12:49.275Z,29.29
2023-03-17T16:15:23.090Z,29.65
2023-03-17T16:17:53.862Z,29.89
2023-03-17T16:20:32.116Z,30.63
2023-03-17T16:23:04.726Z,31.96
2023-03-17T16:25:33.400Z,32.21
2023-03-17T16:28:01.953Z,32.96
2023-03-17T16:30:31.779Z,33.61
2023-03-17T16:33:02.311Z,33.85
2023-03-17T16:35:29.179Z,35.33
2023-03-17T16:37:55.667Z,35.72
2023-03-17T16:40:34.435Z,35.86
2023-03-17T16:43:08.289Z,36.54
2023-03-17T16:45:39.363Z,37.16
2023-03-17T16:48:05.885Z,36.88
2023-03-17T16:50:33.932Z,36.72
2023-03-17T16:53:00.676Z,36.80
2023-03-17T16:55:29.171Z,33.59
2023-03-17T16:57:58.948Z,35.02
2023-03-17T17:00:28.205Z,33.74
2023-03-17T17:02:55.155Z,34.01
2023-03-17T17:05:28.040Z,33.35
2023-03-17T17:07:56.770Z,34.48
2023-03-17T17:10:24.835Z,33.59
2023-03-17T17:12:51.487Z,32.58
2023-03-17T17:15:19.840Z,32.18
2023-03-17T17:17:53.825Z,32.34
2023-03-17T17:20:25.537Z,31.38
2023-03-17T17:22:52.018Z,31.35
2023-03-17T17:25:18.590Z,30.81
2023-03-17T17:27:46.495Z,29.92
2023-03-17T17:30:19.080Z,29.88
2023-03-17T17:32:46.744Z,29.55
2023-03-17T17:35:16.031Z,29.81
2023-03-17T17:37:43.094Z,29.23
2023-03-17T17:40:15.480Z,29.27
2023-03-17T17:42:43.217Z,29.61
2023-03-17T17:45:10.492Z,29.58
2023-03-17T17:47:36.995Z,29.72
2023-03-17T17:50:04.266Z,29.64
2023-03-17T17:52:30.704Z,29.75
2023-03-17T17:54:57.402Z,30.37
2023-03-17T17:57:24.203Z,30.13
2023-03-17T17:59:50.871Z,30.31
2023-03-17T18:02:17.272Z,30.21
2023-03-17T18:04:43.760Z,30.54
2023-03-17T18:07:10.335Z,30.30
2023-03-17T18:09:37.287Z,30.28
2023-03-17T18:12:07.771Z,30.73
2023-03-17T18:14:34.196Z,30.74
2023-03-17T18:17:00.845Z,31.18
2023-03-17T18:19:27.369Z,30.83
2023-03-17T18:21:53.775Z,30.85
2023-03-17T18:24:20.195Z,30.88
2023-03-17T18:26:46.646Z,30.86
2023-03-17T18:29:13.045Z,31.30
2023-03-17T18:31:46.125Z,31.35
2023-03-17T18:34:29.937Z,31.77
2023-03-17T18:36:59.319Z,31.88
2023-03-17T18:39:26.309Z,32.05
2023-03-17T18:41:52.845Z,32.37
2023-03-17T18:44:21.476Z,32.74
2023-03-17T18:46:48.424Z,33.62
2023-03-17T18:49:14.812Z,34.44
2023-03-17T18:51:41.202Z,35.40
2023-03-17T18:54:08.937Z,36.34
2023-03-17T18:56:35.660Z,36.89
2023-03-17T18:59:02.168Z,36.84
2023-03-17T19:01:28.650Z,36.65
2023-03-17T19:03:55.439Z,36.28
2023-03-17T19:06:23.176Z,35.72
2023-03-17T19:08:49.869Z,35.36
2023-03-17T19:11:18.428Z,35.24
2023-03-17T19:13:45.728Z,35.29
2023-03-17T19:16:12.990Z,35.20
2023-03-17T19:18:42.194Z,35.28
2023-03-17T19:21:09.819Z,35.73
2023-03-17T19:23:38.165Z,35.22
2023-03-17T19:26:05.728Z,35.09
2023-03-17T19:28:33.030Z,35.23
2023-03-17T19:30:59.627Z,35.24
2023-03-17T19:33:26.462Z,34.98
2023-03-17T19:35:55.964Z,35.08
2023-03-17T19:38:24.042Z,35.27
2023-03-17T19:40:50.706Z,35.30
2023-03-17T19:43:32.579Z,35.47
2023-03-17T19:46:04.097Z,35.86
2023-03-17T19:48:30.584Z,35.87
2023-03-17T19:50:57.525Z,35.76
2023-03-17T19:53:23.941Z,36.26
2023-03-17T19:55:50.431Z,36.95
2023-03-17T19:58:16.889Z,38.32
2023-03-17T20:00:43.342Z,38.96
2023-03-17T20:03:09.760Z,39.95
2023-03-17T20:05:36.274Z,39.53
2023-03-17T20:08:02.929Z,39.22
2023-03-17T20:10:29.719Z,39.64
2023-03-17T20:12:56.586Z,39.37
2023-03-17T20:15:22.983Z,40.06
2023-03-17T20:17:49.666Z,39.68
2023-03-17T20:20:16.221Z,40.23
2023-03-17T20:22:43.619Z,40.39
2023-03-17T20:25:10.843Z,40.31
2023-03-17T20:27:37.951Z,40.18
2023-03-17T20:30:07.219Z,39.93
2023-03-17T20:32:34.484Z,39.61
2023-03-17T20:35:01.365Z,39.14
2023-03-17T20:37:27.753Z,38.95
2023-03-17T20:39:54.382Z,39.20
2023-03-17T20:42:20.965Z,39.97
2023-03-17T20:44:52.719Z,40.77
2023-03-17T20:47:22.697Z,41.37
2023-03-17T20:49:50.512Z,42.16
2023-03-17T20:52:17.444Z,42.41
2023-03-17T20:54:43.962Z,42.86
2023-03-17T20:57:12.357Z,42.66
2023-03-17T20:59:38.924Z,43.19
2023-03-17T21:02:05.462Z,43.57
2023-03-17T21:04:32.110Z,44.02
2023-03-17T21:06:58.782Z,44.49
2023-03-17T21:09:25.256Z,44.61
2023-03-17T21:11:51.895Z,45.07
2023-03-17T21:14:18.396Z,45.19
2023-03-17T21:16:47.096Z,45.57
2023-03-17T21:19:15.334Z,46.01
2023-03-17T21:21:41.933Z,46.31
2023-03-17T21:24:22.022Z,46.10
2023-03-17T21:26:48.385Z,46.53
2023-03-17T21:29:14.851Z,46.56
2023-03-17T21:31:41.533Z,46.30
2023-03-17T21:34:08.118Z,46.45
2023-03-17T21:36:34.575Z,46.48
2023-03-17T21:39:01.459Z,46.77
2023-03-17T21:41:33.831Z,46.97
2023-03-17T21:44:01.575Z,47.04
2023-03-17T21:46:27.917Z,47.12
2023-03-17T21:48:54.451Z,47.09
2023-03-17T21:51:20.974Z,47.09
2023-03-17T21:53:47.573Z,47.30
2023-03-17T21:56:14.527Z,46.99
2023-03-17T21:58:41.195Z,47.06
2023-03-17T22:01:07.784Z,47.09
2023-03-17T22:03:34.607Z,46.97
2023-03-17T22:06:01.235Z,47.01
2023-03-17T22:08:29.019Z,47.12
2023-03-17T22:10:55.554Z,47.53
2023-03-17T22:13:22.073Z,47.43
2023-03-17T22:15:48.625Z,47.22
2023-03-17T22:18:15.051Z,47.68
2023-03-17T22:20:41.512Z,47.85
2023-03-17T22:23:08.251Z,47.94
2023-03-17T22:25:34.716Z,47.90
2023-03-17T22:28:01.274Z,47.72
2023-03-17T22:30:27.714Z,48.38
2023-03-17T22:32:54.290Z,47.64
2023-03-17T22:35:23.286Z,48.17
2023-03-17T22:37:49.725Z,48.64
2023-03-17T22:40:18.117Z,48.51
2023-03-17T22:42:44.507Z,48.84
2023-03-17T22:45:13.094Z,48.99
2023-03-17T22:47:39.632Z,49.30
2023-03-17T22:50:06.419Z,49.52
2023-03-17T22:52:32.921Z,50.09
2023-03-17T22:54:59.347Z,50.17
2023-03-17T22:57:25.895Z,50.42
2023-03-17T22:59:52.382Z,50.52
2023-03-17T23:02:18.887Z,50.61
2023-03-17T23:04:45.463Z,50.71
2023-03-17T23:07:11.900Z,50.98
2023-03-17T23:09:40.442Z,51.18
2023-03-17T23:12:08.025Z,51.21
2023-03-17T23:14:34.526Z,51.44
2023-03-17T23:17:01.026Z,51.60
2023-03-17T23:19:27.444Z,51.69
2023-03-17T23:21:53.895Z,52.04
2023-03-17T23:24:20.344Z,52.04
2023-03-17T23:26:47.102Z,52.37
2023-03-17T23:29:13.594Z,52.40
2023-03-17T23:31:40.870Z,52.23
2023-03-17T23:34:08.716Z,52.59
2023-03-17T23:36:38.201Z,52.68
2023-03-17T23:39:05.109Z,53.10
2023-03-17T23:41:31.908Z,53.02
2023-03-17T23:43:58.566Z,53.15
2023-03-17T23:46:25.884Z,53.27
2023-03-17T23:48:53.266Z,53.57
2023-03-17T23:51:19.784Z,53.46
2023-03-17T23:53:46.405Z,53.65
2023-03-17T23:56:13.080Z,53.61
2023-03-17T23:58:41.545Z,53.80
